sensor_id;sensor_type;location;lat;lon;timestamp;P1;durP1;ratioP1;P2;durP2;ratioP2
986;SDS011;482;48.778;9.210;2022-07-23T00:00:06;8.50;;;7.80;;
986;SDS011;482;48.778;9.210;2022-07-23T00:02:35;8.33;;;7.63;;
986;SDS011;482;48.778;9.210;2022-07-23T00:05:03;8.37;;;7.67;;
986;SDS011;482;48.778;9.210;2022-07-23T00:07:30;8.10;;;7.40;;
986;SDS011;482;48.778;9.210;2022-07-23T00:09:57;8.20;;;7.53;;
986;SDS011;482;48.778;9.210;2022-07-23T00:12:24;8.37;;;7.70;;
986;SDS011;482;48.778;9.210;2022-07-23T00:14:51;8.37;;;7.67;;
986;SDS011;482;48.778;9.210;2022-07-23T00:17:18;7.50;;;6.90;;
986;SDS011;482;48.778;9.210;2022-07-23T00:19:46;8.23;;;7.60;;
986;SDS011;482;48.778;9.210;2022-07-23T00:22:13;7.70;;;7.03;;
986;SDS011;482;48.778;9.210;2022-07-23T00:24:40;7.00;;;6.50;;
986;SDS011;482;48.778;9.210;2022-07-23T00:27:07;7.33;;;6.80;;
986;SDS011;482;48.778;9.210;2022-07-23T00:29:34;6.37;;;5.87;;
986;SDS011;482;48.778;9.210;2022-07-23T00:32:00;6.60;;;6.13;;
986;SDS011;482;48.778;9.210;2022-07-23T00:34:27;6.50;;;6.00;;
986;SDS011;482;48.778;9.210;2022-07-23T00:36:55;6.60;;;6.10;;
986;SDS011;482;48.778;9.210;2022-07-23T00:39:22;6.67;;;6.10;;
986;SDS011;482;48.778;9.210;2022-07-23T00:41:49;8.00;;;6.20;;
986;SDS011;482;48.778;9.210;2022-07-23T00:44:18;6.87;;;6.37;;
986;SDS011;482;48.778;9.210;2022-07-23T00:46:47;6.90;;;6.30;;
986;SDS011;482;48.778;9.210;2022-07-23T00:49:17;7.00;;;6.50;;
986;SDS011;482;48.778;9.210;2022-07-23T00:51:45;6.53;;;6.03;;
986;SDS011;482;48.778;9.210;2022-07-23T00:54:14;7.20;;;6.50;;
986;SDS011;482;48.778;9.210;2022-07-23T00:56:42;7.00;;;6.40;;
986;SDS011;482;48.778;9.210;2022-07-23T00:59:10;6.77;;;6.27;;
986;SDS011;482;48.778;9.210;2022-07-23T01:01:37;6.97;;;6.47;;
986;SDS011;482;48.778;9.210;2022-07-23T01:04:04;6.47;;;5.97;;
986;SDS011;482;48.778;9.210;2022-07-23T01:06:32;6.90;;;6.40;;
986;SDS011;482;48.778;9.210;2022-07-23T01:09:03;6.90;;;6.30;;
986;SDS011;482;48.778;9.210;2022-07-23T01:11:32;7.00;;;6.50;;
986;SDS011;482;48.778;9.210;2022-07-23T01:14:07;6.47;;;5.97;;
986;SDS011;482;48.778;9.210;2022-07-23T01:16:35;7.03;;;6.53;;
986;SDS011;482;48.778;9.210;2022-07-23T01:19:02;6.57;;;6.00;;
986;SDS011;482;48.778;9.210;2022-07-23T01:21:31;6.43;;;5.83;;
986;SDS011;482;48.778;9.210;2022-07-23T01:24:02;6.47;;;5.97;;
986;SDS011;482;48.778;9.210;2022-07-23T01:26:29;7.20;;;6.60;;
986;SDS011;482;48.778;9.210;2022-07-23T01:28:56;6.50;;;6.00;;
986;SDS011;482;48.778;9.210;2022-07-23T01:31:23;6.80;;;6.20;;
986;SDS011;482;48.778;9.210;2022-07-23T01:33:50;6.77;;;6.17;;
986;SDS011;482;48.778;9.210;2022-07-23T01:36:16;6.90;;;6.20;;
986;SDS011;482;48.778;9.210;2022-07-23T01:38:43;7.20;;;6.60;;
986;SDS011;482;48.778;9.210;2022-07-23T01:41:12;6.37;;;5.87;;
986;SDS011;482;48.778;9.210;2022-07-23T01:43:38;7.03;;;6.33;;
986;SDS011;482;48.778;9.210;2022-07-23T01:46:05;6.80;;;6.30;;
986;SDS011;482;48.778;9.210;2022-07-23T01:48:32;6.87;;;6.37;;
986;SDS011;482;48.778;9.210;2022-07-23T01:50:59;6.53;;;5.97;;
986;SDS011;482;48.778;9.210;2022-07-23T01:53:26;6.63;;;6.13;;
986;SDS011;482;48.778;9.210;2022-07-23T01:55:56;6.90;;;6.40;;
986;SDS011;482;48.778;9.210;2022-07-23T01:58:24;6.73;;;6.13;;
986;SDS011;482;48.778;9.210;2022-07-23T02:00:51;6.77;;;6.27;;
986;SDS011;482;48.778;9.210;2022-07-23T02:03:18;6.87;;;6.37;;
986;SDS011;482;48.778;9.210;2022-07-23T02:05:45;6.90;;;6.30;;
986;SDS011;482;48.778;9.210;2022-07-23T02:08:12;7.20;;;6.70;;
986;SDS011;482;48.778;9.210;2022-07-23T02:10:39;6.60;;;6.10;;
986;SDS011;482;48.778;9.210;2022-07-23T02:13:06;7.30;;;6.70;;
986;SDS011;482;48.778;9.210;2022-07-23T02:15:34;6.63;;;6.13;;
986;SDS011;482;48.778;9.210;2022-07-23T02:18:02;6.40;;;5.90;;
986;SDS011;482;48.778;9.210;2022-07-23T02:20:29;7.57;;;7.03;;
986;SDS011;482;48.778;9.210;2022-07-23T02:22:56;6.70;;;6.20;;
986;SDS011;482;48.778;9.210;2022-07-23T02:25:22;6.60;;;6.10;;
986;SDS011;482;48.778;9.210;2022-07-23T02:27:49;6.80;;;6.20;;
986;SDS011;482;48.778;9.210;2022-07-23T02:30:16;6.27;;;5.77;;
986;SDS011;482;48.778;9.210;2022-07-23T02:32:44;6.63;;;6.13;;
986;SDS011;482;48.778;9.210;2022-07-23T02:35:11;7.33;;;6.77;;
986;SDS011;482;48.778;9.210;2022-07-23T02:37:38;7.13;;;6.53;;
986;SDS011;482;48.778;9.210;2022-07-23T02:40:05;6.97;;;6.37;;
986;SDS011;482;48.778;9.210;2022-07-23T02:42:33;6.80;;;6.30;;
986;SDS011;482;48.778;9.210;2022-07-23T02:45:00;6.93;;;6.43;;
986;SDS011;482;48.778;9.210;2022-07-23T02:47:27;6.77;;;6.27;;
986;SDS011;482;48.778;9.210;2022-07-23T02:49:55;7.30;;;6.60;;
986;SDS011;482;48.778;9.210;2022-07-23T02:52:22;6.90;;;6.30;;
986;SDS011;482;48.778;9.210;2022-07-23T02:54:49;7.13;;;6.60;;
986;SDS011;482;48.778;9.210;2022-07-23T02:57:15;6.70;;;6.20;;
986;SDS011;482;48.778;9.210;2022-07-23T02:59:42;6.90;;;6.40;;
986;SDS011;482;48.778;9.210;2022-07-23T03:02:09;7.30;;;6.70;;
986;SDS011;482;48.778;9.210;2022-07-23T03:04:36;6.63;;;6.03;;
986;SDS011;482;48.778;9.210;2022-07-23T03:07:04;6.90;;;6.40;;
986;SDS011;482;48.778;9.210;2022-07-23T03:09:31;7.50;;;6.80;;
986;SDS011;482;48.778;9.210;2022-07-23T03:11:58;7.13;;;6.53;;
986;SDS011;482;48.778;9.210;2022-07-23T03:14:25;6.73;;;6.13;;
986;SDS011;482;48.778;9.210;2022-07-23T03:16:52;7.93;;;7.13;;
986;SDS011;482;48.778;9.210;2022-07-23T03:19:19;7.20;;;6.60;;
986;SDS011;482;48.778;9.210;2022-07-23T03:21:46;8.03;;;7.33;;
986;SDS011;482;48.778;9.210;2022-07-23T03:24:14;7.10;;;6.50;;
986;SDS011;482;48.778;9.210;2022-07-23T03:26:42;7.80;;;7.00;;
986;SDS011;482;48.778;9.210;2022-07-23T03:29:09;7.60;;;7.00;;
986;SDS011;482;48.778;9.210;2022-07-23T03:31:36;7.37;;;6.87;;
986;SDS011;482;48.778;9.210;2022-07-23T03:34:03;9.17;;;7.70;;
986;SDS011;482;48.778;9.210;2022-07-23T03:36:30;8.00;;;7.40;;
986;SDS011;482;48.778;9.210;2022-07-23T03:38:57;8.30;;;7.60;;
986;SDS011;482;48.778;9.210;2022-07-23T03:41:25;8.13;;;7.43;;
986;SDS011;482;48.778;9.210;2022-07-23T03:43:52;8.00;;;7.40;;
986;SDS011;482;48.778;9.210;2022-07-23T03:46:19;9.13;;;8.43;;
986;SDS011;482;48.778;9.210;2022-07-23T03:48:46;8.60;;;8.00;;
986;SDS011;482;48.778;9.210;2022-07-23T03:51:12;8.90;;;8.20;;
986;SDS011;482;48.778;9.210;2022-07-23T03:53:39;8.17;;;7.57;;
986;SDS011;482;48.778;9.210;2022-07-23T03:56:06;8.60;;;7.90;;
986;SDS011;482;48.778;9.210;2022-07-23T03:58:35;8.43;;;7.63;;
986;SDS011;482;48.778;9.210;2022-07-23T04:01:01;9.10;;;8.30;;
986;SDS011;482;48.778;9.210;2022-07-23T04:03:28;9.20;;;8.40;;
986;SDS011;482;48.778;9.210;2022-07-23T04:05:55;8.70;;;8.00;;
986;SDS011;482;48.778;9.210;2022-07-23T04:08:22;9.10;;;8.20;;
986;SDS011;482;48.778;9.210;2022-07-23T04:10:50;8.83;;;8.03;;
986;SDS011;482;48.778;9.210;2022-07-23T04:13:17;8.60;;;7.87;;
986;SDS011;482;48.778;9.210;2022-07-23T04:15:45;9.67;;;8.90;;
986;SDS011;482;48.778;9.210;2022-07-23T04:18:12;8.40;;;7.67;;
986;SDS011;482;48.778;9.210;2022-07-23T04:20:42;8.97;;;8.27;;
986;SDS011;482;48.778;9.210;2022-07-23T04:23:09;8.70;;;7.90;;
986;SDS011;482;48.778;9.210;2022-07-23T04:25:36;9.17;;;8.47;;
986;SDS011;482;48.778;9.210;2022-07-23T04:28:03;10.13;;;9.27;;
986;SDS011;482;48.778;9.210;2022-07-23T04:30:30;9.03;;;8.30;;
986;SDS011;482;48.778;9.210;2022-07-23T04:32:58;9.50;;;8.70;;
986;SDS011;482;48.778;9.210;2022-07-23T04:35:25;9.03;;;8.13;;
986;SDS011;482;48.778;9.210;2022-07-23T04:37:52;9.00;;;8.23;;
986;SDS011;482;48.778;9.210;2022-07-23T04:40:19;8.00;;;7.30;;
986;SDS011;482;48.778;9.210;2022-07-23T04:42:46;8.50;;;7.80;;
986;SDS011;482;48.778;9.210;2022-07-23T04:45:13;8.33;;;7.67;;
986;SDS011;482;48.778;9.210;2022-07-23T04:47:39;8.27;;;7.47;;
986;SDS011;482;48.778;9.210;2022-07-23T04:50:08;9.63;;;8.83;;
986;SDS011;482;48.778;9.210;2022-07-23T04:52:35;8.70;;;7.90;;
986;SDS011;482;48.778;9.210;2022-07-23T04:55:02;8.70;;;7.90;;
986;SDS011;482;48.778;9.210;2022-07-23T04:57:29;8.77;;;8.07;;
986;SDS011;482;48.778;9.210;2022-07-23T04:59:56;8.53;;;7.73;;
986;SDS011;482;48.778;9.210;2022-07-23T05:02:23;8.50;;;7.80;;
986;SDS011;482;48.778;9.210;2022-07-23T05:04:50;9.10;;;8.20;;
986;SDS011;482;48.778;9.210;2022-07-23T05:07:18;9.27;;;8.57;;
986;SDS011;482;48.778;9.210;2022-07-23T05:09:45;8.70;;;7.90;;
986;SDS011;482;48.778;9.210;2022-07-23T05:12:12;8.37;;;7.67;;
986;SDS011;482;48.778;9.210;2022-07-23T05:14:39;9.10;;;8.30;;
986;SDS011;482;48.778;9.210;2022-07-23T05:17:06;8.47;;;7.77;;
986;SDS011;482;48.778;9.210;2022-07-23T05:19:34;9.83;;;8.90;;
986;SDS011;482;48.778;9.210;2022-07-23T05:22:00;8.60;;;7.90;;
986;SDS011;482;48.778;9.210;2022-07-23T05:24:29;8.83;;;8.03;;
986;SDS011;482;48.778;9.210;2022-07-23T05:26:56;9.00;;;8.20;;
986;SDS011;482;48.778;9.210;2022-07-23T05:29:23;9.03;;;8.33;;
986;SDS011;482;48.778;9.210;2022-07-23T05:31:50;8.80;;;8.10;;
986;SDS011;482;48.778;9.210;2022-07-23T05:34:17;9.27;;;8.47;;
986;SDS011;482;48.778;9.210;2022-07-23T05:36:43;9.43;;;8.63;;
986;SDS011;482;48.778;9.210;2022-07-23T05:39:10;9.27;;;8.57;;
986;SDS011;482;48.778;9.210;2022-07-23T05:41:38;9.47;;;8.67;;
986;SDS011;482;48.778;9.210;2022-07-23T05:44:05;10.33;;;9.53;;
986;SDS011;482;48.778;9.210;2022-07-23T05:46:32;9.47;;;8.57;;
986;SDS011;482;48.778;9.210;2022-07-23T05:48:59;8.90;;;8.17;;
986;SDS011;482;48.778;9.210;2022-07-23T05:51:26;10.67;;;9.70;;
986;SDS011;482;48.778;9.210;2022-07-23T05:53:53;9.37;;;8.57;;
986;SDS011;482;48.778;9.210;2022-07-23T05:56:20;9.00;;;8.30;;
986;SDS011;482;48.778;9.210;2022-07-23T05:58:48;9.40;;;8.60;;
986;SDS011;482;48.778;9.210;2022-07-23T06:01:15;8.83;;;8.13;;
986;SDS011;482;48.778;9.210;2022-07-23T06:03:42;8.50;;;7.80;;
986;SDS011;482;48.778;9.210;2022-07-23T06:06:09;8.40;;;7.70;;
986;SDS011;482;48.778;9.210;2022-07-23T06:08:35;8.93;;;8.13;;
986;SDS011;482;48.778;9.210;2022-07-23T06:11:02;8.40;;;7.73;;
986;SDS011;482;48.778;9.210;2022-07-23T06:13:29;9.10;;;8.40;;
986;SDS011;482;48.778;9.210;2022-07-23T06:15:57;8.67;;;7.87;;
986;SDS011;482;48.778;9.210;2022-07-23T06:18:24;9.30;;;8.60;;
986;SDS011;482;48.778;9.210;2022-07-23T06:20:51;9.00;;;8.20;;
986;SDS011;482;48.778;9.210;2022-07-23T06:23:18;8.27;;;7.57;;
986;SDS011;482;48.778;9.210;2022-07-23T06:25:45;9.60;;;8.80;;
986;SDS011;482;48.778;9.210;2022-07-23T06:28:12;8.90;;;8.10;;
986;SDS011;482;48.778;9.210;2022-07-23T06:30:38;8.50;;;7.80;;
986;SDS011;482;48.778;9.210;2022-07-23T06:33:07;8.50;;;7.80;;
986;SDS011;482;48.778;9.210;2022-07-23T06:35:34;10.47;;;9.27;;
986;SDS011;482;48.778;9.210;2022-07-23T06:38:01;9.10;;;8.30;;
986;SDS011;482;48.778;9.210;2022-07-23T06:40:28;9.87;;;8.97;;
986;SDS011;482;48.778;9.210;2022-07-23T06:42:55;9.63;;;8.83;;
986;SDS011;482;48.778;9.210;2022-07-23T06:45:22;9.63;;;8.93;;
986;SDS011;482;48.778;9.210;2022-07-23T06:47:49;9.17;;;8.37;;
986;SDS011;482;48.778;9.210;2022-07-23T06:50:17;9.47;;;8.67;;
986;SDS011;482;48.778;9.210;2022-07-23T06:52:44;8.90;;;8.10;;
986;SDS011;482;48.778;9.210;2022-07-23T06:55:11;9.70;;;8.90;;
986;SDS011;482;48.778;9.210;2022-07-23T06:57:38;9.33;;;8.50;;
986;SDS011;482;48.778;9.210;2022-07-23T07:00:05;10.00;;;9.00;;
986;SDS011;482;48.778;9.210;2022-07-23T07:02:33;9.20;;;8.40;;
986;SDS011;482;48.778;9.210;2022-07-23T07:05:00;9.50;;;8.63;;
986;SDS011;482;48.778;9.210;2022-07-23T07:07:28;8.87;;;8.07;;
986;SDS011;482;48.778;9.210;2022-07-23T07:09:55;9.50;;;8.80;;
986;SDS011;482;48.778;9.210;2022-07-23T07:12:22;9.50;;;8.60;;
986;SDS011;482;48.778;9.210;2022-07-23T07:14:48;9.77;;;8.97;;
986;SDS011;482;48.778;9.210;2022-07-23T07:17:15;9.23;;;8.33;;
986;SDS011;482;48.778;9.210;2022-07-23T07:19:42;8.60;;;7.90;;
986;SDS011;482;48.778;9.210;2022-07-23T07:22:09;9.57;;;8.77;;
986;SDS011;482;48.778;9.210;2022-07-23T07:24:37;8.93;;;8.20;;
986;SDS011;482;48.778;9.210;2022-07-23T07:27:04;8.67;;;8.07;;
986;SDS011;482;48.778;9.210;2022-07-23T07:29:31;8.93;;;8.20;;
986;SDS011;482;48.778;9.210;2022-07-23T07:31:58;10.40;;;9.30;;
986;SDS011;482;48.778;9.210;2022-07-23T07:34:25;9.33;;;8.60;;
986;SDS011;482;48.778;9.210;2022-07-23T07:36:51;9.30;;;8.40;;
986;SDS011;482;48.778;9.210;2022-07-23T07:39:18;10.30;;;9.40;;
986;SDS011;482;48.778;9.210;2022-07-23T07:41:46;9.50;;;8.70;;
986;SDS011;482;48.778;9.210;2022-07-23T07:44:13;9.70;;;8.90;;
986;SDS011;482;48.778;9.210;2022-07-23T07:46:41;9.90;;;9.03;;
986;SDS011;482;48.778;9.210;2022-07-23T07:49:08;9.80;;;8.97;;
986;SDS011;482;48.778;9.210;2022-07-23T07:51:35;8.63;;;7.93;;
986;SDS011;482;48.778;9.210;2022-07-23T07:54:02;9.10;;;8.30;;
986;SDS011;482;48.778;9.210;2022-07-23T07:56:29;9.00;;;8.30;;
986;SDS011;482;48.778;9.210;2022-07-23T07:58:57;9.60;;;8.80;;
986;SDS011;482;48.778;9.210;2022-07-23T08:01:25;9.20;;;8.50;;
986;SDS011;482;48.778;9.210;2022-07-23T08:03:52;8.80;;;8.00;;
986;SDS011;482;48.778;9.210;2022-07-23T08:06:19;8.73;;;8.03;;
986;SDS011;482;48.778;9.210;2022-07-23T08:08:46;8.30;;;7.60;;
986;SDS011;482;48.778;9.210;2022-07-23T08:11:13;8.30;;;7.67;;
986;SDS011;482;48.778;9.210;2022-07-23T08:13:40;9.23;;;8.43;;
986;SDS011;482;48.778;9.210;2022-07-23T08:16:10;8.40;;;7.70;;
986;SDS011;482;48.778;9.210;2022-07-23T08:18:37;9.50;;;8.70;;
986;SDS011;482;48.778;9.210;2022-07-23T08:21:04;8.03;;;7.30;;
986;SDS011;482;48.778;9.210;2022-07-23T08:23:31;9.33;;;8.53;;
986;SDS011;482;48.778;9.210;2022-07-23T08:25:58;9.00;;;8.30;;
986;SDS011;482;48.778;9.210;2022-07-23T08:28:26;8.67;;;7.73;;
986;SDS011;482;48.778;9.210;2022-07-23T08:30:53;9.17;;;8.47;;
986;SDS011;482;48.778;9.210;2022-07-23T08:33:21;9.10;;;8.40;;
986;SDS011;482;48.778;9.210;2022-07-23T08:35:49;8.97;;;8.10;;
986;SDS011;482;48.778;9.210;2022-07-23T08:38:18;9.03;;;8.20;;
986;SDS011;482;48.778;9.210;2022-07-23T08:40:46;9.50;;;8.30;;
986;SDS011;482;48.778;9.210;2022-07-23T08:43:15;8.90;;;8.10;;
986;SDS011;482;48.778;9.210;2022-07-23T08:45:44;9.50;;;8.53;;
986;SDS011;482;48.778;9.210;2022-07-23T08:48:13;9.40;;;8.60;;
986;SDS011;482;48.778;9.210;2022-07-23T08:50:44;8.97;;;8.17;;
986;SDS011;482;48.778;9.210;2022-07-23T08:53:12;8.13;;;7.53;;
986;SDS011;482;48.778;9.210;2022-07-23T08:55:40;9.00;;;8.20;;
986;SDS011;482;48.778;9.210;2022-07-23T08:58:09;9.10;;;8.30;;
986;SDS011;482;48.778;9.210;2022-07-23T09:00:36;8.77;;;8.07;;
986;SDS011;482;48.778;9.210;2022-07-23T09:03:03;9.40;;;8.50;;
986;SDS011;482;48.778;9.210;2022-07-23T09:05:30;9.20;;;8.50;;
986;SDS011;482;48.778;9.210;2022-07-23T09:08:08;8.60;;;8.00;;
986;SDS011;482;48.778;9.210;2022-07-23T09:10:46;8.43;;;7.83;;
986;SDS011;482;48.778;9.210;2022-07-23T09:13:25;8.47;;;7.87;;
986;SDS011;482;48.778;9.210;2022-07-23T09:15:56;7.70;;;7.10;;
986;SDS011;482;48.778;9.210;2022-07-23T09:18:28;8.40;;;7.80;;
986;SDS011;482;48.778;9.210;2022-07-23T09:21:10;8.63;;;7.93;;
986;SDS011;482;48.778;9.210;2022-07-23T09:23:41;8.00;;;7.40;;
986;SDS011;482;48.778;9.210;2022-07-23T09:26:24;7.93;;;7.33;;
986;SDS011;482;48.778;9.210;2022-07-23T09:29:00;7.97;;;7.47;;
986;SDS011;482;48.778;9.210;2022-07-23T09:31:33;8.53;;;7.97;;
986;SDS011;482;48.778;9.210;2022-07-23T09:34:09;8.70;;;8.03;;
986;SDS011;482;48.778;9.210;2022-07-23T09:36:37;8.87;;;8.27;;
986;SDS011;482;48.778;9.210;2022-07-23T09:39:06;8.37;;;7.77;;
986;SDS011;482;48.778;9.210;2022-07-23T09:41:34;8.83;;;8.20;;
986;SDS011;482;48.778;9.210;2022-07-23T09:44:09;9.00;;;8.30;;
986;SDS011;482;48.778;9.210;2022-07-23T09:46:38;8.73;;;8.00;;
986;SDS011;482;48.778;9.210;2022-07-23T09:49:13;9.60;;;8.90;;
986;SDS011;482;48.778;9.210;2022-07-23T09:51:46;8.80;;;8.17;;
986;SDS011;482;48.778;9.210;2022-07-23T09:54:33;8.83;;;8.13;;
986;SDS011;482;48.778;9.210;2022-07-23T09:57:02;8.47;;;7.87;;
986;SDS011;482;48.778;9.210;2022-07-23T09:59:32;8.40;;;7.80;;
986;SDS011;482;48.778;9.210;2022-07-23T10:02:00;8.87;;;8.17;;
986;SDS011;482;48.778;9.210;2022-07-23T10:04:28;8.27;;;7.70;;
986;SDS011;482;48.778;9.210;2022-07-23T10:06:56;9.27;;;8.57;;
986;SDS011;482;48.778;9.210;2022-07-23T10:09:25;9.20;;;8.40;;
986;SDS011;482;48.778;9.210;2022-07-23T10:11:58;8.20;;;7.70;;
986;SDS011;482;48.778;9.210;2022-07-23T10:14:33;8.50;;;7.80;;
986;SDS011;482;48.778;9.210;2022-07-23T10:17:00;8.83;;;8.23;;
986;SDS011;482;48.778;9.210;2022-07-23T10:19:28;9.50;;;8.80;;
986;SDS011;482;48.778;9.210;2022-07-23T10:21:56;9.87;;;9.07;;
986;SDS011;482;48.778;9.210;2022-07-23T10:24:28;8.40;;;7.70;;
986;SDS011;482;48.778;9.210;2022-07-23T10:27:12;8.80;;;8.20;;
986;SDS011;482;48.778;9.210;2022-07-23T10:30:03;9.10;;;8.47;;
986;SDS011;482;48.778;9.210;2022-07-23T10:32:36;9.20;;;8.50;;
986;SDS011;482;48.778;9.210;2022-07-23T10:35:07;8.07;;;7.53;;
986;SDS011;482;48.778;9.210;2022-07-23T10:37:44;7.90;;;7.40;;
986;SDS011;482;48.778;9.210;2022-07-23T10:40:15;9.63;;;8.83;;
986;SDS011;482;48.778;9.210;2022-07-23T10:42:44;8.27;;;7.70;;
986;SDS011;482;48.778;9.210;2022-07-23T10:45:22;8.50;;;7.83;;
986;SDS011;482;48.778;9.210;2022-07-23T10:48:10;8.40;;;7.80;;
986;SDS011;482;48.778;9.210;2022-07-23T10:50:40;8.93;;;8.23;;
986;SDS011;482;48.778;9.210;2022-07-23T10:53:08;8.90;;;8.23;;
986;SDS011;482;48.778;9.210;2022-07-23T10:55:42;8.40;;;7.80;;
986;SDS011;482;48.778;9.210;2022-07-23T10:58:16;8.00;;;7.40;;
986;SDS011;482;48.778;9.210;2022-07-23T11:00:45;8.77;;;8.17;;
986;SDS011;482;48.778;9.210;2022-07-23T11:03:27;8.73;;;8.00;;
986;SDS011;482;48.778;9.210;2022-07-23T11:06:00;8.83;;;8.23;;
986;SDS011;482;48.778;9.210;2022-07-23T11:08:28;8.90;;;8.30;;
986;SDS011;482;48.778;9.210;2022-07-23T11:10:55;9.50;;;8.70;;
986;SDS011;482;48.778;9.210;2022-07-23T11:13:40;8.70;;;8.00;;
986;SDS011;482;48.778;9.210;2022-07-23T11:16:15;8.43;;;7.63;;
986;SDS011;482;48.778;9.210;2022-07-23T11:18:57;8.30;;;7.60;;
986;SDS011;482;48.778;9.210;2022-07-23T11:21:40;8.60;;;8.00;;
986;SDS011;482;48.778;9.210;2022-07-23T11:24:12;9.03;;;8.33;;
986;SDS011;482;48.778;9.210;2022-07-23T11:26:42;8.60;;;8.00;;
986;SDS011;482;48.778;9.210;2022-07-23T11:32:27;9.20;;;8.50;;
986;SDS011;482;48.778;9.210;2022-07-23T11:34:57;9.63;;;8.90;;
986;SDS011;482;48.778;9.210;2022-07-23T11:37:32;9.33;;;8.53;;
986;SDS011;482;48.778;9.210;2022-07-23T11:40:00;9.30;;;8.60;;
986;SDS011;482;48.778;9.210;2022-07-23T11:42:29;8.20;;;7.60;;
986;SDS011;482;48.778;9.210;2022-07-23T11:44:56;9.23;;;8.53;;
986;SDS011;482;48.778;9.210;2022-07-23T11:47:24;9.00;;;8.40;;
986;SDS011;482;48.778;9.210;2022-07-23T11:49:53;8.80;;;8.20;;
986;SDS011;482;48.778;9.210;2022-07-23T11:52:21;10.33;;;9.50;;
986;SDS011;482;48.778;9.210;2022-07-23T11:54:51;9.10;;;8.40;;
986;SDS011;482;48.778;9.210;2022-07-23T11:57:19;9.33;;;8.60;;
986;SDS011;482;48.778;9.210;2022-07-23T11:59:51;9.40;;;8.57;;
986;SDS011;482;48.778;9.210;2022-07-23T12:02:21;8.80;;;8.20;;
986;SDS011;482;48.778;9.210;2022-07-23T12:04:51;9.10;;;8.20;;
986;SDS011;482;48.778;9.210;2022-07-23T12:07:26;8.70;;;8.10;;
986;SDS011;482;48.778;9.210;2022-07-23T12:09:54;9.57;;;8.77;;
986;SDS011;482;48.778;9.210;2022-07-23T12:12:22;9.40;;;8.70;;
986;SDS011;482;48.778;9.210;2022-07-23T12:14:50;10.70;;;9.80;;
986;SDS011;482;48.778;9.210;2022-07-23T12:17:18;9.50;;;8.70;;
986;SDS011;482;48.778;9.210;2022-07-23T12:19:46;9.43;;;8.73;;
986;SDS011;482;48.778;9.210;2022-07-23T12:22:15;9.97;;;9.27;;
986;SDS011;482;48.778;9.210;2022-07-23T12:24:55;9.70;;;8.90;;
986;SDS011;482;48.778;9.210;2022-07-23T12:27:24;10.30;;;9.50;;
986;SDS011;482;48.778;9.210;2022-07-23T12:29:51;9.77;;;9.00;;
986;SDS011;482;48.778;9.210;2022-07-23T12:32:19;9.80;;;9.00;;
986;SDS011;482;48.778;9.210;2022-07-23T12:34:48;9.90;;;9.10;;
986;SDS011;482;48.778;9.210;2022-07-23T12:37:30;9.70;;;8.87;;
986;SDS011;482;48.778;9.210;2022-07-23T12:39:58;10.20;;;9.40;;
986;SDS011;482;48.778;9.210;2022-07-23T12:42:41;8.90;;;8.30;;
986;SDS011;482;48.778;9.210;2022-07-23T12:45:09;10.03;;;9.37;;
986;SDS011;482;48.778;9.210;2022-07-23T12:50:37;10.30;;;9.50;;
986;SDS011;482;48.778;9.210;2022-07-23T12:53:11;9.63;;;8.93;;
986;SDS011;482;48.778;9.210;2022-07-23T12:55:41;15.40;;;14.10;;
986;SDS011;482;48.778;9.210;2022-07-23T12:58:11;9.83;;;9.13;;
986;SDS011;482;48.778;9.210;2022-07-23T13:00:54;10.43;;;9.57;;
986;SDS011;482;48.778;9.210;2022-07-23T13:03:28;9.90;;;9.20;;
986;SDS011;482;48.778;9.210;2022-07-23T13:05:57;11.03;;;10.03;;
986;SDS011;482;48.778;9.210;2022-07-23T13:08:27;10.27;;;9.40;;
986;SDS011;482;48.778;9.210;2022-07-23T13:10:55;11.30;;;10.40;;
986;SDS011;482;48.778;9.210;2022-07-23T13:13:23;10.07;;;9.33;;
986;SDS011;482;48.778;9.210;2022-07-23T13:15:51;9.70;;;9.00;;
986;SDS011;482;48.778;9.210;2022-07-23T13:18:18;9.17;;;8.47;;
986;SDS011;482;48.778;9.210;2022-07-23T13:20:46;9.90;;;9.00;;
986;SDS011;482;48.778;9.210;2022-07-23T13:23:14;9.60;;;8.80;;
986;SDS011;482;48.778;9.210;2022-07-23T13:25:43;9.60;;;8.80;;
986;SDS011;482;48.778;9.210;2022-07-23T13:28:10;10.03;;;9.20;;
986;SDS011;482;48.778;9.210;2022-07-23T13:30:37;10.00;;;9.10;;
986;SDS011;482;48.778;9.210;2022-07-23T13:33:05;9.70;;;8.90;;
986;SDS011;482;48.778;9.210;2022-07-23T13:35:32;9.83;;;8.93;;
986;SDS011;482;48.778;9.210;2022-07-23T13:38:00;9.80;;;9.03;;
986;SDS011;482;48.778;9.210;2022-07-23T13:40:27;9.80;;;9.00;;
986;SDS011;482;48.778;9.210;2022-07-23T13:42:55;10.80;;;9.80;;
986;SDS011;482;48.778;9.210;2022-07-23T13:45:22;9.53;;;8.77;;
986;SDS011;482;48.778;9.210;2022-07-23T13:47:49;11.07;;;10.17;;
986;SDS011;482;48.778;9.210;2022-07-23T13:50:16;10.43;;;9.47;;
986;SDS011;482;48.778;9.210;2022-07-23T13:52:43;10.50;;;9.70;;
986;SDS011;482;48.778;9.210;2022-07-23T13:55:10;10.43;;;9.40;;
986;SDS011;482;48.778;9.210;2022-07-23T13:57:37;11.20;;;10.33;;
986;SDS011;482;48.778;9.210;2022-07-23T14:00:07;12.17;;;11.17;;
986;SDS011;482;48.778;9.210;2022-07-23T14:02:36;10.80;;;10.07;;
986;SDS011;482;48.778;9.210;2022-07-23T14:05:04;11.17;;;10.27;;
986;SDS011;482;48.778;9.210;2022-07-23T14:07:33;11.53;;;10.53;;
986;SDS011;482;48.778;9.210;2022-07-23T14:10:01;11.43;;;10.53;;
986;SDS011;482;48.778;9.210;2022-07-23T14:12:28;11.83;;;10.87;;
986;SDS011;482;48.778;9.210;2022-07-23T14:14:55;10.80;;;10.00;;
986;SDS011;482;48.778;9.210;2022-07-23T14:17:23;12.00;;;11.00;;
986;SDS011;482;48.778;9.210;2022-07-23T14:19:50;11.50;;;10.60;;
986;SDS011;482;48.778;9.210;2022-07-23T14:22:17;11.53;;;10.63;;
986;SDS011;482;48.778;9.210;2022-07-23T14:24:44;11.23;;;10.27;;
986;SDS011;482;48.778;9.210;2022-07-23T14:27:11;11.33;;;10.43;;
986;SDS011;482;48.778;9.210;2022-07-23T14:29:38;11.20;;;10.30;;
986;SDS011;482;48.778;9.210;2022-07-23T14:32:05;11.30;;;10.30;;
986;SDS011;482;48.778;9.210;2022-07-23T14:34:33;10.80;;;10.00;;
986;SDS011;482;48.778;9.210;2022-07-23T14:37:00;12.50;;;10.40;;
986;SDS011;482;48.778;9.210;2022-07-23T14:39:27;10.73;;;9.93;;
986;SDS011;482;48.778;9.210;2022-07-23T14:41:54;11.20;;;10.30;;
986;SDS011;482;48.778;9.210;2022-07-23T14:44:21;11.17;;;10.20;;
986;SDS011;482;48.778;9.210;2022-07-23T14:46:48;10.33;;;9.63;;
986;SDS011;482;48.778;9.210;2022-07-23T14:49:15;10.90;;;10.10;;
986;SDS011;482;48.778;9.210;2022-07-23T14:51:44;11.50;;;10.53;;
986;SDS011;482;48.778;9.210;2022-07-23T14:54:11;11.50;;;10.40;;
986;SDS011;482;48.778;9.210;2022-07-23T14:56:38;10.90;;;10.10;;
986;SDS011;482;48.778;9.210;2022-07-23T14:59:05;11.20;;;10.30;;
986;SDS011;482;48.778;9.210;2022-07-23T15:01:32;10.57;;;9.77;;
986;SDS011;482;48.778;9.210;2022-07-23T15:04:00;10.63;;;9.93;;
986;SDS011;482;48.778;9.210;2022-07-23T15:06:27;10.57;;;9.77;;
986;SDS011;482;48.778;9.210;2022-07-23T15:08:55;10.53;;;9.80;;
986;SDS011;482;48.778;9.210;2022-07-23T15:11:22;10.40;;;9.70;;
986;SDS011;482;48.778;9.210;2022-07-23T15:13:50;11.00;;;10.20;;
986;SDS011;482;48.778;9.210;2022-07-23T15:16:17;10.60;;;9.80;;
986;SDS011;482;48.778;9.210;2022-07-23T15:18:43;10.50;;;9.70;;
986;SDS011;482;48.778;9.210;2022-07-23T15:21:10;10.20;;;9.50;;
986;SDS011;482;48.778;9.210;2022-07-23T15:23:37;11.07;;;10.27;;
986;SDS011;482;48.778;9.210;2022-07-23T15:26:06;10.60;;;9.80;;
986;SDS011;482;48.778;9.210;2022-07-23T15:28:35;10.60;;;9.80;;
986;SDS011;482;48.778;9.210;2022-07-23T15:31:02;10.80;;;10.00;;
986;SDS011;482;48.778;9.210;2022-07-23T15:33:29;12.00;;;11.10;;
986;SDS011;482;48.778;9.210;2022-07-23T15:35:56;10.43;;;9.63;;
986;SDS011;482;48.778;9.210;2022-07-23T15:38:24;10.80;;;10.00;;
986;SDS011;482;48.778;9.210;2022-07-23T15:40:52;11.20;;;10.30;;
986;SDS011;482;48.778;9.210;2022-07-23T15:43:20;11.00;;;10.10;;
986;SDS011;482;48.778;9.210;2022-07-23T15:45:47;10.67;;;9.90;;
986;SDS011;482;48.778;9.210;2022-07-23T15:48:15;10.67;;;9.80;;
986;SDS011;482;48.778;9.210;2022-07-23T15:50:42;10.90;;;10.10;;
986;SDS011;482;48.778;9.210;2022-07-23T15:53:08;11.10;;;10.17;;